sensor_id;sensor_type;location;lat;lon;timestamp;P1;durP1;ratioP1;P2;durP2;ratioP2
42226;SDS011;27892;52.378;13.122;2022-09-09T00:03:56;2.87;;;2.67;;
42226;SDS011;27892;52.378;13.122;2022-09-09T00:06:52;3.13;;;2.93;;
42226;SDS011;27892;52.378;13.122;2022-09-09T00:09:27;3.50;;;3.20;;
42226;SDS011;27892;52.378;13.122;2022-09-09T00:11:56;3.37;;;3.17;;
42226;SDS011;27892;52.378;13.122;2022-09-09T00:17:03;3.40;;;3.20;;
42226;SDS011;27892;52.378;13.122;2022-09-09T00:19:39;2.97;;;2.77;;
42226;SDS011;27892;52.378;13.122;2022-09-09T00:22:16;2.73;;;2.53;;
42226;SDS011;27892;52.378;13.122;2022-09-09T00:24:46;2.30;;;2.10;;
42226;SDS011;27892;52.378;13.122;2022-09-09T00:27:23;2.40;;;2.20;;
42226;SDS011;27892;52.378;13.122;2022-09-09T00:32:45;2.30;;;2.20;;
42226;SDS011;27892;52.378;13.122;2022-09-09T00:35:14;2.10;;;2.00;;
42226;SDS011;27892;52.378;13.122;2022-09-09T00:37:49;1.70;;;1.60;;
42226;SDS011;27892;52.378;13.122;2022-09-09T00:40:22;2.13;;;2.03;;
42226;SDS011;27892;52.378;13.122;2022-09-09T00:42:48;2.10;;;2.00;;
42226;SDS011;27892;52.378;13.122;2022-09-09T00:45:42;1.63;;;1.60;;
42226;SDS011;27892;52.378;13.122;2022-09-09T00:48:23;2.10;;;2.00;;
42226;SDS011;27892;52.378;13.122;2022-09-09T00:51:01;2.10;;;2.00;;
42226;SDS011;27892;52.378;13.122;2022-09-09T00:53:38;3.20;;;3.00;;
42226;SDS011;27892;52.378;13.122;2022-09-09T00:56:20;2.30;;;2.20;;
42226;SDS011;27892;52.378;13.122;2022-09-09T01:01:26;2.90;;;2.70;;
42226;SDS011;27892;52.378;13.122;2022-09-09T01:09:16;4.13;;;3.30;;
42226;SDS011;27892;52.378;13.122;2022-09-09T01:11:51;3.70;;;3.40;;
42226;SDS011;27892;52.378;13.122;2022-09-09T01:14:38;3.10;;;2.90;;
42226;SDS011;27892;52.378;13.122;2022-09-09T01:25:11;1.93;;;1.83;;
42226;SDS011;27892;52.378;13.122;2022-09-09T01:27:44;1.70;;;1.60;;
42226;SDS011;27892;52.378;13.122;2022-09-09T01:30:13;1.97;;;1.87;;
42226;SDS011;27892;52.378;13.122;2022-09-09T01:32:43;1.70;;;1.67;;
42226;SDS011;27892;52.378;13.122;2022-09-09T01:35:27;1.93;;;1.83;;
42226;SDS011;27892;52.378;13.122;2022-09-09T01:38:07;1.80;;;1.70;;
42226;SDS011;27892;52.378;13.122;2022-09-09T01:40:33;1.80;;;1.70;;
42226;SDS011;27892;52.378;13.122;2022-09-09T01:42:59;2.87;;;2.67;;
42226;SDS011;27892;52.378;13.122;2022-09-09T01:45:24;2.80;;;2.60;;
42226;SDS011;27892;52.378;13.122;2022-09-09T01:47:52;2.30;;;2.20;;
42226;SDS011;27892;52.378;13.122;2022-09-09T01:50:18;1.90;;;1.80;;
42226;SDS011;27892;52.378;13.122;2022-09-09T01:52:45;2.27;;;2.17;;
42226;SDS011;27892;52.378;13.122;2022-09-09T01:55:13;3.00;;;2.77;;
42226;SDS011;27892;52.378;13.122;2022-09-09T02:00:14;2.30;;;2.10;;
42226;SDS011;27892;52.378;13.122;2022-09-09T02:08:08;2.10;;;2.00;;
42226;SDS011;27892;52.378;13.122;2022-09-09T02:11:05;2.20;;;2.10;;
42226;SDS011;27892;52.378;13.122;2022-09-09T02:13:38;1.73;;;1.70;;
42226;SDS011;27892;52.378;13.122;2022-09-09T02:16:07;1.70;;;1.60;;
42226;SDS011;27892;52.378;13.122;2022-09-09T02:21:07;1.53;;;1.50;;
42226;SDS011;27892;52.378;13.122;2022-09-09T02:23:36;1.60;;;1.50;;
42226;SDS011;27892;52.378;13.122;2022-09-09T02:26:04;1.70;;;1.60;;
42226;SDS011;27892;52.378;13.122;2022-09-09T02:28:32;2.40;;;2.27;;
42226;SDS011;27892;52.378;13.122;2022-09-09T02:31:01;2.83;;;2.63;;
42226;SDS011;27892;52.378;13.122;2022-09-09T02:33:28;2.30;;;2.20;;
42226;SDS011;27892;52.378;13.122;2022-09-09T02:35:59;1.90;;;1.80;;
42226;SDS011;27892;52.378;13.122;2022-09-09T02:38:29;1.60;;;1.50;;
42226;SDS011;27892;52.378;13.122;2022-09-09T02:41:00;1.70;;;1.60;;
42226;SDS011;27892;52.378;13.122;2022-09-09T02:43:30;1.70;;;1.60;;
42226;SDS011;27892;52.378;13.122;2022-09-09T02:46:01;1.50;;;1.50;;
42226;SDS011;27892;52.378;13.122;2022-09-09T02:51:23;1.80;;;1.70;;
42226;SDS011;27892;52.378;13.122;2022-09-09T02:56:51;1.77;;;1.67;;
42226;SDS011;27892;52.378;13.122;2022-09-09T02:59:38;1.40;;;1.40;;
42226;SDS011;27892;52.378;13.122;2022-09-09T03:02:23;1.90;;;1.80;;
42226;SDS011;27892;52.378;13.122;2022-09-09T03:05:08;1.87;;;1.77;;
42226;SDS011;27892;52.378;13.122;2022-09-09T03:07:52;1.70;;;1.60;;
42226;SDS011;27892;52.378;13.122;2022-09-09T03:10:36;1.50;;;1.50;;
42226;SDS011;27892;52.378;13.122;2022-09-09T03:13:20;1.80;;;1.70;;
42226;SDS011;27892;52.378;13.122;2022-09-09T03:15:47;1.50;;;1.40;;
42226;SDS011;27892;52.378;13.122;2022-09-09T03:18:13;1.83;;;1.73;;
42226;SDS011;27892;52.378;13.122;2022-09-09T03:20:39;2.20;;;2.10;;
42226;SDS011;27892;52.378;13.122;2022-09-09T03:23:07;1.97;;;1.87;;
42226;SDS011;27892;52.378;13.122;2022-09-09T03:25:32;2.30;;;2.20;;
42226;SDS011;27892;52.378;13.122;2022-09-09T03:27:58;1.90;;;1.80;;
42226;SDS011;27892;52.378;13.122;2022-09-09T03:30:25;1.80;;;1.70;;
42226;SDS011;27892;52.378;13.122;2022-09-09T03:32:51;1.60;;;1.50;;
42226;SDS011;27892;52.378;13.122;2022-09-09T03:35:17;2.00;;;1.63;;
42226;SDS011;27892;52.378;13.122;2022-09-09T03:37:43;1.50;;;1.47;;
42226;SDS011;27892;52.378;13.122;2022-09-09T03:40:09;1.60;;;1.50;;
42226;SDS011;27892;52.378;13.122;2022-09-09T03:42:35;1.47;;;1.37;;
42226;SDS011;27892;52.378;13.122;2022-09-09T03:45:02;1.67;;;1.57;;
42226;SDS011;27892;52.378;13.122;2022-09-09T03:47:32;1.80;;;1.70;;
42226;SDS011;27892;52.378;13.122;2022-09-09T03:49:58;1.57;;;1.47;;
42226;SDS011;27892;52.378;13.122;2022-09-09T03:52:24;1.50;;;1.50;;
42226;SDS011;27892;52.378;13.122;2022-09-09T03:54:51;1.77;;;1.67;;
42226;SDS011;27892;52.378;13.122;2022-09-09T03:57:17;1.90;;;1.80;;
42226;SDS011;27892;52.378;13.122;2022-09-09T03:59:43;2.47;;;2.27;;
42226;SDS011;27892;52.378;13.122;2022-09-09T04:02:09;2.53;;;2.37;;
42226;SDS011;27892;52.378;13.122;2022-09-09T04:04:35;3.03;;;2.50;;
42226;SDS011;27892;52.378;13.122;2022-09-09T04:07:01;2.53;;;2.10;;
42226;SDS011;27892;52.378;13.122;2022-09-09T04:09:26;2.10;;;2.00;;
42226;SDS011;27892;52.378;13.122;2022-09-09T04:11:52;2.20;;;2.10;;
42226;SDS011;27892;52.378;13.122;2022-09-09T04:14:19;2.20;;;2.10;;
42226;SDS011;27892;52.378;13.122;2022-09-09T04:16:45;1.90;;;1.80;;
42226;SDS011;27892;52.378;13.122;2022-09-09T04:19:11;2.10;;;2.00;;
42226;SDS011;27892;52.378;13.122;2022-09-09T04:21:38;2.17;;;2.07;;
42226;SDS011;27892;52.378;13.122;2022-09-09T04:24:05;2.33;;;2.13;;
42226;SDS011;27892;52.378;13.122;2022-09-09T04:26:32;2.30;;;2.20;;
42226;SDS011;27892;52.378;13.122;2022-09-09T04:28:58;2.30;;;2.20;;
42226;SDS011;27892;52.378;13.122;2022-09-09T04:31:23;2.03;;;1.93;;
42226;SDS011;27892;52.378;13.122;2022-09-09T04:33:49;1.87;;;1.77;;
42226;SDS011;27892;52.378;13.122;2022-09-09T04:36:16;2.10;;;2.00;;
42226;SDS011;27892;52.378;13.122;2022-09-09T04:38:46;2.30;;;2.20;;
42226;SDS011;27892;52.378;13.122;2022-09-09T04:41:13;2.47;;;2.27;;
42226;SDS011;27892;52.378;13.122;2022-09-09T04:43:40;1.90;;;1.80;;
42226;SDS011;27892;52.378;13.122;2022-09-09T04:46:06;2.03;;;1.93;;
42226;SDS011;27892;52.378;13.122;2022-09-09T04:48:31;2.37;;;2.20;;
42226;SDS011;27892;52.378;13.122;2022-09-09T04:50:58;2.37;;;2.27;;
42226;SDS011;27892;52.378;13.122;2022-09-09T04:53:26;2.10;;;2.00;;
42226;SDS011;27892;52.378;13.122;2022-09-09T04:58:47;1.80;;;1.70;;
42226;SDS011;27892;52.378;13.122;2022-09-09T05:01:14;1.73;;;1.63;;
42226;SDS011;27892;52.378;13.122;2022-09-09T05:03:45;1.40;;;1.40;;
42226;SDS011;27892;52.378;13.122;2022-09-09T05:06:12;1.80;;;1.70;;
42226;SDS011;27892;52.378;13.122;2022-09-09T05:08:40;1.70;;;1.60;;
42226;SDS011;27892;52.378;13.122;2022-09-09T05:11:16;1.70;;;1.60;;
42226;SDS011;27892;52.378;13.122;2022-09-09T05:13:52;2.07;;;1.97;;
42226;SDS011;27892;52.378;13.122;2022-09-09T05:16:18;2.60;;;2.40;;
42226;SDS011;27892;52.378;13.122;2022-09-09T05:18:45;2.40;;;2.20;;
42226;SDS011;27892;52.378;13.122;2022-09-09T05:21:11;1.70;;;1.60;;
42226;SDS011;27892;52.378;13.122;2022-09-09T05:23:38;1.73;;;1.63;;
42226;SDS011;27892;52.378;13.122;2022-09-09T05:26:05;1.80;;;1.70;;
42226;SDS011;27892;52.378;13.122;2022-09-09T05:28:35;1.80;;;1.70;;
42226;SDS011;27892;52.378;13.122;2022-09-09T05:31:02;1.50;;;1.50;;
42226;SDS011;27892;52.378;13.122;2022-09-09T05:33:30;2.10;;;2.00;;
42226;SDS011;27892;52.378;13.122;2022-09-09T05:35:57;4.53;;;3.53;;
42226;SDS011;27892;52.378;13.122;2022-09-09T05:38:23;3.20;;;3.00;;
42226;SDS011;27892;52.378;13.122;2022-09-09T05:40:50;3.03;;;2.73;;
42226;SDS011;27892;52.378;13.122;2022-09-09T05:43:17;2.40;;;2.30;;
42226;SDS011;27892;52.378;13.122;2022-09-09T05:45:45;3.80;;;3.40;;
42226;SDS011;27892;52.378;13.122;2022-09-09T05:48:12;3.90;;;3.50;;
42226;SDS011;27892;52.378;13.122;2022-09-09T05:50:41;3.50;;;3.20;;
42226;SDS011;27892;52.378;13.122;2022-09-09T05:53:07;3.07;;;2.77;;
42226;SDS011;27892;52.378;13.122;2022-09-09T05:55:35;2.47;;;2.37;;
42226;SDS011;27892;52.378;13.122;2022-09-09T05:58:00;2.50;;;2.30;;
42226;SDS011;27892;52.378;13.122;2022-09-09T06:00:26;3.43;;;2.97;;
42226;SDS011;27892;52.378;13.122;2022-09-09T06:02:52;3.50;;;2.43;;
42226;SDS011;27892;52.378;13.122;2022-09-09T06:05:18;2.07;;;1.87;;
42226;SDS011;27892;52.378;13.122;2022-09-09T06:07:44;1.90;;;1.80;;
42226;SDS011;27892;52.378;13.122;2022-09-09T06:10:13;1.58;;;1.58;;
42226;SDS011;27892;52.378;13.122;2022-09-09T06:12:39;1.30;;;1.30;;
42226;SDS011;27892;52.378;13.122;2022-09-09T06:15:05;1.20;;;1.10;;
42226;SDS011;27892;52.378;13.122;2022-09-09T06:17:32;1.20;;;1.20;;
42226;SDS011;27892;52.378;13.122;2022-09-09T06:19:57;1.20;;;1.20;;
42226;SDS011;27892;52.378;13.122;2022-09-09T06:22:23;1.00;;;1.00;;
42226;SDS011;27892;52.378;13.122;2022-09-09T06:24:48;1.98;;;1.88;;
42226;SDS011;27892;52.378;13.122;2022-09-09T06:27:14;2.08;;;1.83;;
42226;SDS011;27892;52.378;13.122;2022-09-09T06:29:40;1.65;;;1.40;;
42226;SDS011;27892;52.378;13.122;2022-09-09T06:32:05;1.70;;;1.60;;
42226;SDS011;27892;52.378;13.122;2022-09-09T06:34:35;3.00;;;2.10;;
42226;SDS011;27892;52.378;13.122;2022-09-09T06:37:01;1.90;;;1.80;;
42226;SDS011;27892;52.378;13.122;2022-09-09T06:46:01;1.80;;;1.70;;
42226;SDS011;27892;52.378;13.122;2022-09-09T06:48:42;2.95;;;1.40;;
42226;SDS011;27892;52.378;13.122;2022-09-09T07:09:48;0.70;;;0.70;;
42226;SDS011;27892;52.378;13.122;2022-09-09T07:12:14;0.88;;;0.88;;
42226;SDS011;27892;52.378;13.122;2022-09-09T07:14:39;2.60;;;1.48;;
42226;SDS011;27892;52.378;13.122;2022-09-09T07:17:05;1.15;;;1.05;;
42226;SDS011;27892;52.378;13.122;2022-09-09T07:19:31;1.00;;;0.90;;
42226;SDS011;27892;52.378;13.122;2022-09-09T07:21:56;1.05;;;0.82;;
42226;SDS011;27892;52.378;13.122;2022-09-09T07:24:22;1.00;;;1.00;;
42226;SDS011;27892;52.378;13.122;2022-09-09T07:26:48;0.70;;;0.70;;
42226;SDS011;27892;52.378;13.122;2022-09-09T07:29:13;0.82;;;0.82;;
42226;SDS011;27892;52.378;13.122;2022-09-09T07:31:39;1.25;;;0.85;;
42226;SDS011;27892;52.378;13.122;2022-09-09T07:34:05;0.90;;;0.90;;
42226;SDS011;27892;52.378;13.122;2022-09-09T07:36:32;0.57;;;0.57;;
42226;SDS011;27892;52.378;13.122;2022-09-09T07:39:00;0.90;;;0.90;;
42226;SDS011;27892;52.378;13.122;2022-09-09T07:41:32;0.95;;;0.75;;
42226;SDS011;27892;52.378;13.122;2022-09-09T07:44:04;1.20;;;1.10;;
42226;SDS011;27892;52.378;13.122;2022-09-09T07:46:32;0.90;;;0.90;;
42226;SDS011;27892;52.378;13.122;2022-09-09T07:48:59;1.30;;;1.20;;
42226;SDS011;27892;52.378;13.122;2022-09-09T07:51:28;1.13;;;1.02;;
42226;SDS011;27892;52.378;13.122;2022-09-09T07:53:57;1.48;;;1.10;;
42226;SDS011;27892;52.378;13.122;2022-09-09T07:56:25;1.00;;;1.00;;
42226;SDS011;27892;52.378;13.122;2022-09-09T07:58:52;1.20;;;1.10;;
42226;SDS011;27892;52.378;13.122;2022-09-09T08:01:20;1.45;;;1.35;;
42226;SDS011;27892;52.378;13.122;2022-09-09T08:03:55;1.20;;;1.20;;
42226;SDS011;27892;52.378;13.122;2022-09-09T08:06:26;1.88;;;1.63;;
42226;SDS011;27892;52.378;13.122;2022-09-09T08:08:54;1.40;;;1.20;;
42226;SDS011;27892;52.378;13.122;2022-09-09T08:11:20;1.30;;;1.20;;
42226;SDS011;27892;52.378;13.122;2022-09-09T08:13:48;2.05;;;1.20;;
42226;SDS011;27892;52.378;13.122;2022-09-09T08:16:19;2.35;;;1.55;;
42226;SDS011;27892;52.378;13.122;2022-09-09T08:18:47;1.77;;;1.30;;
42226;SDS011;27892;52.378;13.122;2022-09-09T08:21:17;2.10;;;1.20;;
42226;SDS011;27892;52.378;13.122;2022-09-09T08:23:45;1.10;;;1.10;;
42226;SDS011;27892;52.378;13.122;2022-09-09T08:26:16;1.48;;;1.38;;
42226;SDS011;27892;52.378;13.122;2022-09-09T08:28:47;2.05;;;1.33;;
42226;SDS011;27892;52.378;13.122;2022-09-09T08:31:18;1.75;;;1.50;;
42226;SDS011;27892;52.378;13.122;2022-09-09T08:33:45;2.38;;;1.65;;
42226;SDS011;27892;52.378;13.122;2022-09-09T08:36:13;1.23;;;1.13;;
42226;SDS011;27892;52.378;13.122;2022-09-09T08:38:40;1.10;;;1.10;;
42226;SDS011;27892;52.378;13.122;2022-09-09T08:41:12;1.60;;;1.50;;
42226;SDS011;27892;52.378;13.122;2022-09-09T08:43:46;3.40;;;1.80;;
42226;SDS011;27892;52.378;13.122;2022-09-09T08:49:04;2.20;;;1.98;;
42226;SDS011;27892;52.378;13.122;2022-09-09T08:51:41;1.50;;;1.40;;
42226;SDS011;27892;52.378;13.122;2022-09-09T08:54:07;2.58;;;1.52;;
42226;SDS011;27892;52.378;13.122;2022-09-09T08:56:35;2.67;;;1.65;;
42226;SDS011;27892;52.378;13.122;2022-09-09T08:59:01;2.20;;;1.80;;
42226;SDS011;27892;52.378;13.122;2022-09-09T09:12:45;1.38;;;1.27;;
42226;SDS011;27892;52.378;13.122;2022-09-09T09:17:47;2.17;;;1.63;;
42226;SDS011;27892;52.378;13.122;2022-09-09T09:20:14;2.13;;;1.48;;
42226;SDS011;27892;52.378;13.122;2022-09-09T09:22:49;1.45;;;1.35;;
42226;SDS011;27892;52.378;13.122;2022-09-09T09:28:31;1.30;;;1.20;;
42226;SDS011;27892;52.378;13.122;2022-09-09T09:30:47;2.13;;;1.35;;
42226;SDS011;27892;52.378;13.122;2022-09-09T09:33:18;0.80;;;0.80;;
42226;SDS011;27892;52.378;13.122;2022-09-09T09:35:48;1.20;;;1.10;;
42226;SDS011;27892;52.378;13.122;2022-09-09T09:38:16;2.88;;;1.50;;
42226;SDS011;27892;52.378;13.122;2022-09-09T09:40:55;1.30;;;1.20;;
42226;SDS011;27892;52.378;13.122;2022-09-09T09:43:32;2.85;;;1.45;;
42226;SDS011;27892;52.378;13.122;2022-09-09T09:45:59;2.05;;;1.20;;
42226;SDS011;27892;52.378;13.122;2022-09-09T09:48:28;0.90;;;0.90;;
42226;SDS011;27892;52.378;13.122;2022-09-09T09:50:54;2.55;;;1.27;;
42226;SDS011;27892;52.378;13.122;2022-09-09T09:53:31;0.90;;;0.90;;
42226;SDS011;27892;52.378;13.122;2022-09-09T09:55:59;2.30;;;1.30;;
42226;SDS011;27892;52.378;13.122;2022-09-09T09:58:30;1.30;;;1.20;;
42226;SDS011;27892;52.378;13.122;2022-09-09T10:00:59;1.10;;;1.10;;
42226;SDS011;27892;52.378;13.122;2022-09-09T10:05:53;2.05;;;1.10;;
42226;SDS011;27892;52.378;13.122;2022-09-09T10:08:20;1.17;;;1.08;;
42226;SDS011;27892;52.378;13.122;2022-09-09T10:13:49;3.35;;;1.73;;
42226;SDS011;27892;52.378;13.122;2022-09-09T10:19:01;1.17;;;1.02;;
42226;SDS011;27892;52.378;13.122;2022-09-09T10:37:49;1.00;;;0.93;;
42226;SDS011;27892;52.378;13.122;2022-09-09T10:40:42;1.13;;;0.90;;
42226;SDS011;27892;52.378;13.122;2022-09-09T10:43:13;1.38;;;1.10;;
42226;SDS011;27892;52.378;13.122;2022-09-09T10:46:10;2.67;;;1.30;;
42226;SDS011;27892;52.378;13.122;2022-09-09T10:51:57;2.22;;;1.00;;
42226;SDS011;27892;52.378;13.122;2022-09-09T10:57:36;3.40;;;1.30;;
42226;SDS011;27892;52.378;13.122;2022-09-09T11:00:14;1.38;;;1.00;;
42226;SDS011;27892;52.378;13.122;2022-09-09T11:02:45;1.80;;;1.13;;
42226;SDS011;27892;52.378;13.122;2022-09-09T11:05:20;1.88;;;1.20;;
42226;SDS011;27892;52.378;13.122;2022-09-09T11:07:56;1.33;;;0.93;;
42226;SDS011;27892;52.378;13.122;2022-09-09T11:16:15;1.45;;;0.93;;
42226;SDS011;27892;52.378;13.122;2022-09-09T11:18:48;2.83;;;1.40;;
42226;SDS011;27892;52.378;13.122;2022-09-09T11:21:18;1.52;;;1.00;;
42226;SDS011;27892;52.378;13.122;2022-09-09T11:24:08;1.85;;;1.10;;
42226;SDS011;27892;52.378;13.122;2022-09-09T11:26:42;2.13;;;1.05;;
42226;SDS011;27892;52.378;13.122;2022-09-09T11:32:22;2.58;;;1.25;;
42226;SDS011;27892;52.378;13.122;2022-09-09T11:37:47;1.83;;;1.20;;
42226;SDS011;27892;52.378;13.122;2022-09-09T11:40:37;1.83;;;1.10;;
42226;SDS011;27892;52.378;13.122;2022-09-09T11:45:51;1.23;;;1.00;;
42226;SDS011;27892;52.378;13.122;2022-09-09T11:48:32;0.90;;;0.77;;
42226;SDS011;27892;52.378;13.122;2022-09-09T11:51:03;1.92;;;1.10;;
42226;SDS011;27892;52.378;13.122;2022-09-09T11:53:52;2.25;;;1.05;;
42226;SDS011;27892;52.378;13.122;2022-09-09T11:59:05;1.73;;;1.08;;
42226;SDS011;27892;52.378;13.122;2022-09-09T12:01:44;1.17;;;0.80;;
42226;SDS011;27892;52.378;13.122;2022-09-09T12:04:27;1.08;;;0.90;;
42226;SDS011;27892;52.378;13.122;2022-09-09T12:20:23;1.77;;;1.10;;
42226;SDS011;27892;52.378;13.122;2022-09-09T12:23:19;2.25;;;1.00;;
42226;SDS011;27892;52.378;13.122;2022-09-09T12:29:31;1.10;;;1.00;;
42226;SDS011;27892;52.378;13.122;2022-09-09T12:34:13;1.48;;;0.80;;
42226;SDS011;27892;52.378;13.122;2022-09-09T12:36:42;0.93;;;0.93;;
42226;SDS011;27892;52.378;13.122;2022-09-09T12:39:16;1.15;;;0.80;;
42226;SDS011;27892;52.378;13.122;2022-09-09T12:41:50;2.25;;;1.05;;
42226;SDS011;27892;52.378;13.122;2022-09-09T12:44:21;0.75;;;0.75;;
42226;SDS011;27892;52.378;13.122;2022-09-09T12:46:53;0.93;;;0.88;;
42226;SDS011;27892;52.378;13.122;2022-09-09T12:52:01;1.80;;;0.98;;
42226;SDS011;27892;52.378;13.122;2022-09-09T12:54:30;0.85;;;0.85;;
42226;SDS011;27892;52.378;13.122;2022-09-09T12:56:57;1.20;;;1.00;;
42226;SDS011;27892;52.378;13.122;2022-09-09T12:59:24;1.10;;;0.90;;
42226;SDS011;27892;52.378;13.122;2022-09-09T13:01:55;2.25;;;1.08;;
42226;SDS011;27892;52.378;13.122;2022-09-09T13:04:22;1.27;;;1.15;;
42226;SDS011;27892;52.378;13.122;2022-09-09T13:06:48;1.02;;;0.90;;
42226;SDS011;27892;52.378;13.122;2022-09-09T13:09:14;1.40;;;0.93;;
42226;SDS011;27892;52.378;13.122;2022-09-09T13:11:44;0.95;;;0.95;;
42226;SDS011;27892;52.378;13.122;2022-09-09T13:14:16;0.95;;;0.85;;
42226;SDS011;27892;52.378;13.122;2022-09-09T13:16:58;1.08;;;0.70;;
42226;SDS011;27892;52.378;13.122;2022-09-09T13:19:25;1.00;;;0.70;;
42226;SDS011;27892;52.378;13.122;2022-09-09T13:21:54;1.25;;;0.70;;
42226;SDS011;27892;52.378;13.122;2022-09-09T13:27:01;0.65;;;0.65;;
42226;SDS011;27892;52.378;13.122;2022-09-09T13:29:28;0.90;;;0.90;;
42226;SDS011;27892;52.378;13.122;2022-09-09T13:32:12;0.65;;;0.65;;
42226;SDS011;27892;52.378;13.122;2022-09-09T13:34:50;1.05;;;0.70;;
42226;SDS011;27892;52.378;13.122;2022-09-09T13:37:23;2.22;;;0.95;;
42226;SDS011;27892;52.378;13.122;2022-09-09T13:39:58;1.00;;;0.90;;
42226;SDS011;27892;52.378;13.122;2022-09-09T13:42:25;0.75;;;0.75;;
42226;SDS011;27892;52.378;13.122;2022-09-09T13:44:53;1.00;;;0.80;;
42226;SDS011;27892;52.378;13.122;2022-09-09T13:47:34;1.05;;;1.00;;
42226;SDS011;27892;52.378;13.122;2022-09-09T13:53:07;0.60;;;0.60;;
42226;SDS011;27892;52.378;13.122;2022-09-09T13:55:33;0.80;;;0.75;;
42226;SDS011;27892;52.378;13.122;2022-09-09T13:58:01;0.90;;;0.70;;
42226;SDS011;27892;52.378;13.122;2022-09-09T14:00:30;0.57;;;0.57;;
42226;SDS011;27892;52.378;13.122;2022-09-09T14:02:58;0.75;;;0.75;;
42226;SDS011;27892;52.378;13.122;2022-09-09T14:05:26;1.08;;;0.70;;
42226;SDS011;27892;52.378;13.122;2022-09-09T14:07:52;0.70;;;0.70;;
42226;SDS011;27892;52.378;13.122;2022-09-09T14:10:18;1.27;;;0.90;;
42226;SDS011;27892;52.378;13.122;2022-09-09T14:12:44;0.50;;;0.50;;
42226;SDS011;27892;52.378;13.122;2022-09-09T14:15:11;1.38;;;0.95;;
42226;SDS011;27892;52.378;13.122;2022-09-09T14:17:37;1.58;;;0.80;;
42226;SDS011;27892;52.378;13.122;2022-09-09T14:20:04;1.17;;;0.93;;
42226;SDS011;27892;52.378;13.122;2022-09-09T14:22:32;2.25;;;1.23;;
42226;SDS011;27892;52.378;13.122;2022-09-09T14:24:58;1.48;;;1.20;;
42226;SDS011;27892;52.378;13.122;2022-09-09T14:27:24;1.60;;;1.10;;
42226;SDS011;27892;52.378;13.122;2022-09-09T14:29:51;1.80;;;1.00;;
42226;SDS011;27892;52.378;13.122;2022-09-09T14:32:17;0.95;;;0.70;;
42226;SDS011;27892;52.378;13.122;2022-09-09T14:34:43;0.70;;;0.70;;
42226;SDS011;27892;52.378;13.122;2022-09-09T14:37:09;1.15;;;1.00;;
42226;SDS011;27892;52.378;13.122;2022-09-09T14:39:35;0.85;;;0.73;;
42226;SDS011;27892;52.378;13.122;2022-09-09T14:42:00;0.73;;;0.70;;
42226;SDS011;27892;52.378;13.122;2022-09-09T14:44:27;0.80;;;0.80;;
42226;SDS011;27892;52.378;13.122;2022-09-09T14:46:53;1.80;;;0.95;;
42226;SDS011;27892;52.378;13.122;2022-09-09T14:49:19;0.63;;;0.63;;
42226;SDS011;27892;52.378;13.122;2022-09-09T14:51:44;0.60;;;0.57;;
42226;SDS011;27892;52.378;13.122;2022-09-09T14:54:10;0.60;;;0.60;;
42226;SDS011;27892;52.378;13.122;2022-09-09T14:56:36;1.17;;;0.90;;
42226;SDS011;27892;52.378;13.122;2022-09-09T14:59:03;0.50;;;0.50;;
42226;SDS011;27892;52.378;13.122;2022-09-09T15:01:29;1.15;;;0.70;;
42226;SDS011;27892;52.378;13.122;2022-09-09T15:04:00;1.23;;;0.70;;
42226;SDS011;27892;52.378;13.122;2022-09-09T15:06:28;1.67;;;0.70;;
42226;SDS011;27892;52.378;13.122;2022-09-09T15:08:56;0.50;;;0.50;;
42226;SDS011;27892;52.378;13.122;2022-09-09T15:11:26;1.05;;;0.70;;
42226;SDS011;27892;52.378;13.122;2022-09-09T15:13:53;0.95;;;0.90;;
42226;SDS011;27892;52.378;13.122;2022-09-09T15:16:19;0.93;;;0.88;;
42226;SDS011;27892;52.378;13.122;2022-09-09T15:18:46;1.23;;;1.13;;
42226;SDS011;27892;52.378;13.122;2022-09-09T15:21:16;0.70;;;0.70;;
42226;SDS011;27892;52.378;13.122;2022-09-09T15:23:44;0.80;;;0.80;;
42226;SDS011;27892;52.378;13.122;2022-09-09T15:26:10;2.20;;;1.10;;
42226;SDS011;27892;52.378;13.122;2022-09-09T15:28:40;0.90;;;0.80;;
42226;SDS011;27892;52.378;13.122;2022-09-09T15:31:07;0.98;;;0.80;;
42226;SDS011;27892;52.378;13.122;2022-09-09T15:33:35;2.80;;;1.10;;
42226;SDS011;27892;52.378;13.122;2022-09-09T15:36:12;1.60;;;1.08;;
42226;SDS011;27892;52.378;13.122;2022-09-09T15:38:39;1.75;;;1.10;;
42226;SDS011;27892;52.378;13.122;2022-09-09T15:41:05;2.38;;;1.00;;
42226;SDS011;27892;52.378;13.122;2022-09-09T15:43:31;0.70;;;0.70;;
42226;SDS011;27892;52.378;13.122;2022-09-09T15:45:59;0.80;;;0.80;;
42226;SDS011;27892;52.378;13.122;2022-09-09T15:48:52;2.35;;;1.08;;
42226;SDS011;27892;52.378;13.122;2022-09-09T15:51:19;1.25;;;0.88;;
42226;SDS011;27892;52.378;13.122;2022-09-09T15:53:46;0.98;;;0.80;;
42226;SDS011;27892;52.378;13.122;2022-09-09T15:56:12;0.70;;;0.70;;
42226;SDS011;27892;52.378;13.122;2022-09-09T15:58:38;0.75;;;0.75;;
42226;SDS011;27892;52.378;13.122;2022-09-09T16:01:07;0.60;;;0.60;;
42226;SDS011;27892;52.378;13.122;2022-09-09T16:03:37;0.80;;;0.80;;
42226;SDS011;27892;52.378;13.122;2022-09-09T16:06:06;0.90;;;0.70;;
42226;SDS011;27892;52.378;13.122;2022-09-09T16:08:33;2.08;;;0.80;;
42226;SDS011;27892;52.378;13.122;2022-09-09T16:11:13;0.70;;;0.70;;
42226;SDS011;27892;52.378;13.122;2022-09-09T16:13:41;0.70;;;0.63;;
42226;SDS011;27892;52.378;13.122;2022-09-09T16:16:12;0.73;;;0.65;;
42226;SDS011;27892;52.378;13.122;2022-09-09T16:18:40;0.73;;;0.73;;
42226;SDS011;27892;52.378;13.122;2022-09-09T16:21:23;2.42;;;1.27;;
42226;SDS011;27892;52.378;13.122;2022-09-09T16:23:55;2.17;;;1.23;;
42226;SDS011;27892;52.378;13.122;2022-09-09T16:26:24;1.20;;;1.00;;
42226;SDS011;27892;52.378;13.122;2022-09-09T16:28:51;1.33;;;1.13;;
42226;SDS011;27892;52.378;13.122;2022-09-09T16:31:20;0.80;;;0.80;;
42226;SDS011;27892;52.378;13.122;2022-09-09T16:33:49;0.80;;;0.80;;
42226;SDS011;27892;52.378;13.122;2022-09-09T16:36:16;0.70;;;0.70;;
42226;SDS011;27892;52.378;13.122;2022-09-09T16:38:44;1.40;;;1.30;;
42226;SDS011;27892;52.378;13.122;2022-09-09T16:41:12;1.33;;;1.00;;
42226;SDS011;27892;52.378;13.122;2022-09-09T16:43:39;0.70;;;0.70;;
42226;SDS011;27892;52.378;13.122;2022-09-09T16:46:15;1.75;;;1.20;;
42226;SDS011;27892;52.378;13.122;2022-09-09T16:48:43;1.67;;;1.20;;
42226;SDS011;27892;52.378;13.122;2022-09-09T16:51:17;1.15;;;0.90;;
42226;SDS011;27892;52.378;13.122;2022-09-09T16:53:43;0.85;;;0.85;;
42226;SDS011;27892;52.378;13.122;2022-09-09T16:56:13;1.00;;;0.90;;
42226;SDS011;27892;52.378;13.122;2022-09-09T16:58:41;0.77;;;0.77;;
42226;SDS011;27892;52.378;13.122;2022-09-09T17:01:10;0.82;;;0.82;;
42226;SDS011;27892;52.378;13.122;2022-09-09T17:03:39;0.70;;;0.70;;
42226;SDS011;27892;52.378;13.122;2022-09-09T17:06:09;0.75;;;0.75;;
42226;SDS011;27892;52.378;13.122;2022-09-09T17:08:39;0.95;;;0.95;;
42226;SDS011;27892;52.378;13.122;2022-09-09T17:11:12;0.98;;;0.98;;
42226;SDS011;27892;52.378;13.122;2022-09-09T17:13:40;0.80;;;0.80;;
42226;SDS011;27892;52.378;13.122;2022-09-09T17:16:06;0.82;;;0.82;;
42226;SDS011;27892;52.378;13.122;2022-09-09T17:18:33;0.88;;;0.88;;
42226;SDS011;27892;52.378;13.122;2022-09-09T17:21:02;1.10;;;1.10;;
42226;SDS011;27892;52.378;13.122;2022-09-09T17:23:34;1.20;;;1.10;;
42226;SDS011;27892;52.378;13.122;2022-09-09T17:26:03;1.10;;;1.00;;
42226;SDS011;27892;52.378;13.122;2022-09-09T17:28:32;1.20;;;1.10;;
42226;SDS011;27892;52.378;13.122;2022-09-09T17:30:59;1.02;;;1.02;;
42226;SDS011;27892;52.378;13.122;2022-09-09T17:33:27;2.05;;;1.15;;